Time;durP1;ratioP1;P1;durP2;ratioP2;P2;SDS_P1;SDS_P2;PMS_P1;PMS_P2;Temp;Humidity;BMP_temperature;BMP_pressure;BME280_temperature;BME280_humidity;BME280_pressure;Samples;Min_cycle;Max_cycle;Signal;HPM_P1;HPM_P2
2023/04/10 00:00:31;;;;;;;19.27;8.07;;;;;;;;;;5032580;28;20056;-71
2023/04/10 00:02:58;;;;;;;17.45;8.20;;;;;;;;;;5036073;28;20060;-71
2023/04/10 00:05:25;;;;;;;15.52;8.00;;;;;;;;;;5038737;28;20063;-69
2023/04/10 00:07:52;;;;;;;19.33;7.93;;;;;;;;;;5024797;28;20368;-69
2023/04/10 00:10:19;;;;;;;14.98;8.50;;;;;;;;;;5039561;28;20125;-70
2023/04/10 00:12:50;;;;;;;15.70;7.22;;;;;;;;;;5027339;28;20056;-71
2023/04/10 00:15:16;;;;;;;15.13;7.22;;;;;;;;;;5043368;28;20053;-72
2023/04/10 00:17:43;;;;;;;14.10;7.20;;;;;;;;;;5028325;28;20056;-71
2023/04/10 00:20:10;;;;;;;14.55;6.82;;;;;;;;;;5038874;28;20056;-70
2023/04/10 00:22:37;;;;;;;14.30;6.82;;;;;;;;;;5029372;28;20068;-69
2023/04/10 00:25:05;;;;;;;15.50;7.53;;;;;;;;;;5038938;28;20080;-69
2023/04/10 00:27:31;;;;;;;19.08;7.32;;;;;;;;;;5029590;28;20085;-69
2023/04/10 00:30:01;;;;;;;16.92;7.13;;;;;;;;;;5038427;28;20124;-69
2023/04/10 00:32:28;;;;;;;16.20;7.32;;;;;;;;;;5028831;28;20052;-71
2023/04/10 00:34:55;;;;;;;14.75;7.30;;;;;;;;;;5035996;28;20052;-71
2023/04/10 00:37:22;;;;;;;15.57;7.32;;;;;;;;;;5034360;28;20060;-70
2023/04/10 00:39:48;;;;;;;15.52;6.63;;;;;;;;;;5028047;28;20110;-70
2023/04/10 00:42:15;;;;;;;14.00;7.13;;;;;;;;;;5037751;28;20315;-69
2023/04/10 00:44:42;;;;;;;14.18;7.15;;;;;;;;;;5028786;28;20052;-71
2023/04/10 00:47:10;;;;;;;14.82;7.05;;;;;;;;;;5034509;28;20149;-70
2023/04/10 00:49:37;;;;;;;13.55;6.32;;;;;;;;;;5032680;28;20072;-72
2023/04/10 00:52:04;;;;;;;14.68;6.93;;;;;;;;;;5037611;28;20064;-71
2023/04/10 00:54:31;;;;;;;13.75;6.97;;;;;;;;;;5028210;28;20052;-72
2023/04/10 00:56:58;;;;;;;13.30;6.47;;;;;;;;;;5036148;28;20052;-69
2023/04/10 00:59:25;;;;;;;13.02;6.35;;;;;;;;;;5034851;28;20143;-69
2023/04/10 01:01:52;;;;;;;14.95;6.43;;;;;;;;;;5038788;28;20058;-69
2023/04/10 01:04:21;;;;;;;11.40;5.63;;;;;;;;;;5032298;28;20053;-69
2023/04/10 01:06:54;;;;;;;13.65;6.50;;;;;;;;;;5035825;28;20066;-70
2023/04/10 01:09:28;;;;;;;13.43;5.97;;;;;;;;;;5040421;28;20048;-69
2023/04/10 01:11:57;;;;;;;12.63;6.20;;;;;;;;;;5037304;28;20052;-72
2023/04/10 01:14:28;;;;;;;11.93;5.57;;;;;;;;;;5066048;28;20048;-70
2023/04/10 01:16:58;;;;;;;14.82;6.10;;;;;;;;;;5037053;28;20053;-71
2023/04/10 01:19:32;;;;;;;12.60;5.82;;;;;;;;;;5029841;28;20048;-71
2023/04/10 01:22:00;;;;;;;10.85;5.65;;;;;;;;;;5038304;28;20141;-70
2023/04/10 01:24:38;;;;;;;14.10;6.10;;;;;;;;;;5030559;28;20153;-70
2023/04/10 01:27:10;;;;;;;15.13;6.50;;;;;;;;;;5034711;28;20058;-71
2023/04/10 01:29:41;;;;;;;12.57;6.25;;;;;;;;;;5034996;28;20079;-71
2023/04/10 01:32:10;;;;;;;11.13;5.90;;;;;;;;;;5037477;28;20060;-69
2023/04/10 01:34:39;;;;;;;12.38;5.60;;;;;;;;;;5031255;28;20056;-69
2023/04/10 01:37:08;;;;;;;11.98;6.13;;;;;;;;;;5030311;28;20135;-68
2023/04/10 01:39:36;;;;;;;15.32;6.22;;;;;;;;;;5037813;28;20072;-69
2023/04/10 01:42:05;;;;;;;13.77;6.03;;;;;;;;;;5033006;28;20143;-69
2023/04/10 01:44:32;;;;;;;11.88;5.40;;;;;;;;;;5033462;28;20070;-69
2023/04/10 01:47:01;;;;;;;11.18;5.70;;;;;;;;;;5024916;28;20068;-71
2023/04/10 01:49:28;;;;;;;10.45;5.20;;;;;;;;;;5038657;28;20052;-69
2023/04/10 01:51:57;;;;;;;12.65;5.80;;;;;;;;;;5034597;28;20048;-70
2023/04/10 01:54:26;;;;;;;12.73;5.10;;;;;;;;;;5053844;28;20103;-72
2023/04/10 01:56:52;;;;;;;;;;;;;;;;;;5038161;28;20072;-70
2023/04/10 01:59:19;;;;;;;10.38;5.65;;;;;;;;;;5037589;28;19924;-69
2023/04/10 02:01:46;;;;;;;12.35;5.63;;;;;;;;;;5033069;28;20054;-70
2023/04/10 02:04:14;;;;;;;12.60;5.75;;;;;;;;;;5007685;28;20079;-71
2023/04/10 02:06:45;;;;;;;11.27;5.55;;;;;;;;;;5048156;28;20056;-70
2023/04/10 02:09:16;;;;;;;11.80;5.85;;;;;;;;;;5025347;28;20052;-71
2023/04/10 02:11:47;;;;;;;13.38;5.03;;;;;;;;;;5027558;28;20118;-69
2023/04/10 02:14:16;;;;;;;11.70;5.10;;;;;;;;;;5034659;28;20071;-71
2023/04/10 02:16:43;;;;;;;11.20;5.53;;;;;;;;;;5032350;28;20052;-69
2023/04/10 02:19:11;;;;;;;13.23;5.43;;;;;;;;;;5034363;28;20060;-71
2023/04/10 02:21:41;;;;;;;10.73;5.30;;;;;;;;;;5034540;28;20060;-72
2023/04/10 02:24:07;;;;;;;11.98;5.15;;;;;;;;;;5034758;28;20052;-70
2023/04/10 02:26:44;;;;;;;11.82;5.57;;;;;;;;;;5037637;28;20062;-71
2023/04/10 02:29:10;;;;;;;14.43;5.55;;;;;;;;;;5032559;28;20053;-68
2023/04/10 02:31:37;;;;;;;13.18;5.43;;;;;;;;;;5032404;28;20060;-70
2023/04/10 02:34:04;;;;;;;11.25;5.30;;;;;;;;;;5029722;28;20068;-72
2023/04/10 02:36:31;;;;;;;11.20;5.55;;;;;;;;;;5037494;28;20080;-69
2023/04/10 02:38:59;;;;;;;11.50;5.10;;;;;;;;;;5032529;28;20118;-71
2023/04/10 02:41:26;;;;;;;10.55;5.07;;;;;;;;;;5030929;28;20048;-71
2023/04/10 02:43:53;;;;;;;11.93;5.07;;;;;;;;;;5048886;28;20052;-71
2023/04/10 02:46:19;;;;;;;12.77;4.78;;;;;;;;;;5039028;28;20071;-70
2023/04/10 02:48:46;;;;;;;12.23;5.47;;;;;;;;;;5033128;28;20052;-70
2023/04/10 02:51:13;;;;;;;12.30;5.53;;;;;;;;;;5034482;28;20135;-71
2023/04/10 02:53:40;;;;;;;12.73;5.35;;;;;;;;;;5033796;28;20152;-71
2023/04/10 02:56:10;;;;;;;12.02;5.50;;;;;;;;;;5037709;28;20120;-69
2023/04/10 02:58:37;;;;;;;11.93;5.55;;;;;;;;;;5038137;28;20048;-70
2023/04/10 03:01:05;;;;;;;10.70;4.85;;;;;;;;;;5041633;28;20209;-69
2023/04/10 03:03:32;;;;;;;12.43;5.05;;;;;;;;;;5031401;28;20220;-71
2023/04/10 03:05:59;;;;;;;10.73;4.70;;;;;;;;;;5039009;28;20095;-69
2023/04/10 03:08:26;;;;;;;13.85;5.07;;;;;;;;;;5038811;28;20063;-69
2023/04/10 03:10:52;;;;;;;11.75;4.95;;;;;;;;;;5039269;28;20056;-71
2023/04/10 03:13:22;;;;;;;11.45;4.93;;;;;;;;;;5031677;28;20045;-71
2023/04/10 03:15:49;;;;;;;9.85;4.70;;;;;;;;;;5034614;28;20053;-70
2023/04/10 03:18:15;;;;;;;10.90;5.40;;;;;;;;;;5042272;28;20076;-71
2023/04/10 03:20:42;;;;;;;11.55;5.15;;;;;;;;;;5035075;28;20053;-70
2023/04/10 03:23:10;;;;;;;10.68;5.15;;;;;;;;;;5037917;28;20134;-69
2023/04/10 03:25:37;;;;;;;12.10;5.07;;;;;;;;;;5026822;28;20057;-71
2023/04/10 03:28:03;;;;;;;10.07;4.95;;;;;;;;;;5041255;28;20128;-70
2023/04/10 03:30:34;;;;;;;12.75;5.40;;;;;;;;;;5036203;28;20127;-70
2023/04/10 03:33:00;;;;;;;9.18;4.45;;;;;;;;;;5040737;28;20051;-71
2023/04/10 03:35:27;;;;;;;11.35;4.80;;;;;;;;;;5026689;28;20048;-69
2023/04/10 03:37:54;;;;;;;10.95;4.80;;;;;;;;;;5040735;28;20106;-69
2023/04/10 03:40:21;;;;;;;10.52;4.82;;;;;;;;;;5037613;28;20076;-68
2023/04/10 03:42:48;;;;;;;10.75;4.93;;;;;;;;;;5042809;28;20045;-71
2023/04/10 03:45:15;;;;;;;11.70;4.97;;;;;;;;;;5029320;28;20182;-69
2023/04/10 03:47:44;;;;;;;9.60;4.63;;;;;;;;;;5039909;28;20055;-71
2023/04/10 03:50:10;;;;;;;11.45;5.38;;;;;;;;;;5041084;28;20063;-71
2023/04/10 03:52:37;;;;;;;11.85;5.00;;;;;;;;;;5040672;28;20052;-69
2023/04/10 03:55:05;;;;;;;12.77;4.90;;;;;;;;;;5034888;28;20164;-71
2023/04/10 03:57:32;;;;;;;11.45;5.15;;;;;;;;;;5031253;28;21380;-69
2023/04/10 03:59:58;;;;;;;10.90;4.78;;;;;;;;;;5040089;28;20056;-71
2023/04/10 04:02:25;;;;;;;10.40;4.97;;;;;;;;;;5035839;28;20068;-71
2023/04/10 04:04:53;;;;;;;10.90;4.72;;;;;;;;;;5034789;28;20048;-70
2023/04/10 04:07:20;;;;;;;11.95;4.90;;;;;;;;;;5029236;28;20177;-69
2023/04/10 04:09:47;;;;;;;9.73;4.93;;;;;;;;;;5038856;28;20063;-72
2023/04/10 04:12:14;;;;;;;8.82;4.63;;;;;;;;;;5034651;28;20048;-71
2023/04/10 04:14:42;;;;;;;11.10;4.68;;;;;;;;;;5037284;28;20063;-71
2023/04/10 04:17:09;;;;;;;9.88;4.60;;;;;;;;;;5034822;28;20052;-71
2023/04/10 04:19:38;;;;;;;10.00;4.55;;;;;;;;;;5037732;28;20056;-69
2023/04/10 04:22:06;;;;;;;10.68;4.55;;;;;;;;;;5036477;28;20076;-71
2023/04/10 04:24:33;;;;;;;10.13;4.57;;;;;;;;;;5033407;28;20056;-70
2023/04/10 04:27:00;;;;;;;10.05;4.35;;;;;;;;;;5036763;28;20060;-69
2023/04/10 04:29:26;;;;;;;11.63;4.55;;;;;;;;;;5032319;28;20056;-69
2023/04/10 04:31:53;;;;;;;10.38;5.30;;;;;;;;;;5033428;28;20056;-70
2023/04/10 04:34:20;;;;;;;10.27;4.93;;;;;;;;;;5033827;28;20064;-69
2023/04/10 04:36:47;;;;;;;11.55;4.70;;;;;;;;;;5038947;28;20054;-71
2023/04/10 04:39:15;;;;;;;10.48;4.78;;;;;;;;;;5027890;28;20059;-71
2023/04/10 04:41:42;;;;;;;9.15;4.13;;;;;;;;;;5039530;28;20052;-69
2023/04/10 04:44:09;;;;;;;9.18;4.05;;;;;;;;;;5030559;28;20060;-70
2023/04/10 04:46:36;;;;;;;9.75;4.47;;;;;;;;;;5038700;28;20183;-69
2023/04/10 04:49:03;;;;;;;9.50;4.07;;;;;;;;;;5028311;28;20090;-74
2023/04/10 04:51:30;;;;;;;9.95;4.47;;;;;;;;;;5028423;28;20670;-72
2023/04/10 04:53:59;;;;;;;9.93;4.45;;;;;;;;;;5027804;28;20049;-73
2023/04/10 04:56:30;;;;;;;11.32;4.88;;;;;;;;;;5033336;28;20143;-71
2023/04/10 04:58:59;;;;;;;9.38;4.47;;;;;;;;;;5037410;28;20090;-70
2023/04/10 05:01:26;;;;;;;9.18;3.92;;;;;;;;;;5037409;28;20241;-71
2023/04/10 05:03:53;;;;;;;10.40;3.92;;;;;;;;;;5027827;28;20048;-72
2023/04/10 05:06:21;;;;;;;8.27;4.07;;;;;;;;;;5037423;28;20048;-71
2023/04/10 05:08:48;;;;;;;9.40;4.20;;;;;;;;;;5020146;28;20052;-69
2023/04/10 05:11:15;;;;;;;9.60;4.32;;;;;;;;;;5045213;28;20056;-71
2023/04/10 05:13:43;;;;;;;9.63;4.57;;;;;;;;;;5033248;28;20060;-70
2023/04/10 05:16:10;;;;;;;9.48;4.55;;;;;;;;;;5014231;28;20063;-71
2023/04/10 05:18:39;;;;;;;9.73;4.50;;;;;;;;;;5024058;28;20076;-72
2023/04/10 05:21:09;;;;;;;12.45;4.68;;;;;;;;;;5037221;28;20099;-70
2023/04/10 05:23:36;;;;;;;10.43;4.90;;;;;;;;;;5035330;28;20056;-71
2023/04/10 05:26:03;;;;;;;10.50;4.43;;;;;;;;;;5013300;28;20056;-70
2023/04/10 05:28:29;;;;;;;10.00;4.78;;;;;;;;;;5038904;28;20048;-72
2023/04/10 05:30:58;;;;;;;10.98;4.68;;;;;;;;;;5034568;28;20052;-70
2023/04/10 05:33:25;;;;;;;9.98;4.22;;;;;;;;;;5032790;28;20133;-69
2023/04/10 05:35:53;;;;;;;12.35;4.95;;;;;;;;;;5030732;28;20056;-70
2023/04/10 05:38:20;;;;;;;9.75;3.95;;;;;;;;;;5037583;28;20079;-69
2023/04/10 05:40:46;;;;;;;9.63;4.30;;;;;;;;;;5022629;28;20052;-69
2023/04/10 05:43:13;;;;;;;10.30;4.18;;;;;;;;;;5035233;28;20148;-72
2023/04/10 05:45:40;;;;;;;10.77;4.70;;;;;;;;;;5029740;28;20114;-72
2023/04/10 05:48:08;;;;;;;10.13;4.43;;;;;;;;;;5039172;28;20128;-70
2023/04/10 05:50:35;;;;;;;9.30;4.38;;;;;;;;;;5031800;28;20053;-70
2023/04/10 05:53:02;;;;;;;9.80;4.60;;;;;;;;;;5036799;28;20056;-69
2023/04/10 05:55:30;;;;;;;8.82;4.18;;;;;;;;;;5010563;28;20316;-71
2023/04/10 05:57:57;;;;;;;9.98;4.07;;;;;;;;;;5037694;28;20080;-70
2023/04/10 06:00:25;;;;;;;10.07;3.97;;;;;;;;;;5035131;28;20056;-72
2023/04/10 06:02:51;;;;;;;10.32;4.90;;;;;;;;;;5036756;28;20111;-72
2023/04/10 06:05:20;;;;;;;9.27;4.20;;;;;;;;;;5028783;28;20132;-69
2023/04/10 06:07:47;;;;;;;;;;;;;;;;;;5037744;28;20056;-69
2023/04/10 06:10:13;;;;;;;8.68;4.18;;;;;;;;;;5037101;28;19924;-69
2023/04/10 06:12:40;;;;;;;9.57;4.13;;;;;;;;;;5033965;28;20082;-71
2023/04/10 06:15:13;;;;;;;10.10;4.30;;;;;;;;;;5033296;28;20059;-69
2023/04/10 06:17:43;;;;;;;10.43;4.78;;;;;;;;;;5031906;28;20079;-69
2023/04/10 06:20:13;;;;;;;9.65;4.40;;;;;;;;;;5038211;28;20048;-69
2023/04/10 06:22:41;;;;;;;10.98;4.40;;;;;;;;;;5033386;28;20052;-71
2023/04/10 06:25:12;;;;;;;10.00;4.47;;;;;;;;;;5020074;28;20064;-69
2023/04/10 06:27:39;;;;;;;10.77;4.70;;;;;;;;;;5027356;28;20140;-69
2023/04/10 06:30:06;;;;;;;12.20;4.95;;;;;;;;;;5035993;28;20229;-71
2023/04/10 06:32:39;;;;;;;9.52;4.30;;;;;;;;;;5033351;28;20163;-72
2023/04/10 06:35:08;;;;;;;10.18;4.47;;;;;;;;;;5031969;28;20065;-69
2023/04/10 06:37:34;;;;;;;11.23;4.43;;;;;;;;;;5027499;28;20147;-72
2023/04/10 06:40:06;;;;;;;10.30;4.53;;;;;;;;;;5037190;28;20053;-69
2023/04/10 06:42:33;;;;;;;9.68;4.65;;;;;;;;;;5024688;28;20052;-71
2023/04/10 06:45:00;;;;;;;10.32;4.90;;;;;;;;;;5048172;28;20047;-71
2023/04/10 06:47:27;;;;;;;11.45;4.63;;;;;;;;;;5016991;28;20211;-71
2023/04/10 06:49:53;;;;;;;9.57;4.07;;;;;;;;;;5037304;28;20110;-70
2023/04/10 06:52:20;;;;;;;9.65;4.45;;;;;;;;;;5038583;28;20088;-70
2023/04/10 06:54:50;;;;;;;12.20;5.15;;;;;;;;;;5036734;28;20088;-72
2023/04/10 06:57:20;;;;;;;14.20;4.57;;;;;;;;;;5032491;28;20091;-70
2023/04/10 06:59:58;;;;;;;10.57;4.60;;;;;;;;;;5036929;28;20056;-70
2023/04/10 07:02:24;;;;;;;11.18;4.63;;;;;;;;;;5040255;28;20061;-70
2023/04/10 07:04:52;;;;;;;9.35;4.32;;;;;;;;;;5028737;28;20109;-71
2023/04/10 07:07:19;;;;;;;9.95;4.68;;;;;;;;;;5032327;28;20052;-71
2023/04/10 07:09:45;;;;;;;10.23;4.78;;;;;;;;;;5034264;28;20057;-71
2023/04/10 07:12:15;;;;;;;12.55;5.68;;;;;;;;;;5037392;28;20064;-71
2023/04/10 07:14:43;;;;;;;12.48;5.28;;;;;;;;;;5028835;28;20049;-72
2023/04/10 07:17:13;;;;;;;11.07;5.57;;;;;;;;;;5033401;28;20053;-70
2023/04/10 07:19:46;;;;;;;11.20;5.05;;;;;;;;;;5029776;28;20063;-69
2023/04/10 07:22:15;;;;;;;12.32;5.68;;;;;;;;;;5043334;28;20135;-69
2023/04/10 07:24:45;;;;;;;9.90;4.68;;;;;;;;;;5017986;28;20052;-71
2023/04/10 07:27:15;;;;;;;13.57;5.85;;;;;;;;;;5025539;28;20052;-70
2023/04/10 07:29:43;;;;;;;11.68;5.18;;;;;;;;;;5024417;28;20063;-71
2023/04/10 07:32:10;;;;;;;11.65;5.47;;;;;;;;;;5035408;28;20056;-69
2023/04/10 07:34:37;;;;;;;11.95;5.78;;;;;;;;;;5021842;28;20048;-69
2023/04/10 07:37:04;;;;;;;10.75;4.93;;;;;;;;;;5027841;28;20130;-71
2023/04/10 07:39:33;;;;;;;12.27;5.57;;;;;;;;;;5019517;28;20064;-71
2023/04/10 07:42:00;;;;;;;10.90;4.75;;;;;;;;;;5030817;28;20098;-69
2023/04/10 07:44:27;;;;;;;11.60;5.43;;;;;;;;;;5014244;28;20330;-70
2023/04/10 07:46:55;;;;;;;9.77;5.18;;;;;;;;;;5037685;28;20142;-69
2023/04/10 07:49:22;;;;;;;13.30;5.70;;;;;;;;;;5038054;28;20200;-70
2023/04/10 07:51:49;;;;;;;11.10;5.18;;;;;;;;;;5039347;28;20052;-71
2023/04/10 07:54:16;;;;;;;11.07;4.85;;;;;;;;;;5026958;28;20048;-70
2023/04/10 07:56:43;;;;;;;12.48;5.68;;;;;;;;;;5055288;28;20056;-71
2023/04/10 07:59:10;;;;;;;12.43;5.78;;;;;;;;;;5036759;28;20057;-71
2023/04/10 08:01:39;;;;;;;11.13;4.95;;;;;;;;;;5036359;28;20128;-71
2023/04/10 08:04:07;;;;;;;12.50;5.78;;;;;;;;;;5037765;28;20052;-71
2023/04/10 08:06:37;;;;;;;12.18;5.88;;;;;;;;;;5035561;28;20048;-69
2023/04/10 08:09:06;;;;;;;12.13;5.47;;;;;;;;;;5039527;28;20148;-69
2023/04/10 08:11:34;;;;;;;13.95;5.80;;;;;;;;;;5035608;28;20137;-69
2023/04/10 08:14:01;;;;;;;14.70;5.63;;;;;;;;;;5036374;28;20056;-71
2023/04/10 08:16:31;;;;;;;11.77;5.43;;;;;;;;;;5034826;28;20086;-69
2023/04/10 08:19:01;;;;;;;12.52;5.72;;;;;;;;;;5038724;28;20056;-71
2023/04/10 08:21:31;;;;;;;11.85;6.03;;;;;;;;;;5028977;28;20116;-72
2023/04/10 08:24:01;;;;;;;10.95;5.60;;;;;;;;;;5042489;28;20048;-69
2023/04/10 08:26:28;;;;;;;12.13;5.32;;;;;;;;;;5038729;28;20057;-70
2023/04/10 08:28:56;;;;;;;12.38;5.53;;;;;;;;;;5041912;28;20060;-71
2023/04/10 08:31:23;;;;;;;11.55;5.53;;;;;;;;;;5030668;28;20068;-71
2023/04/10 08:33:52;;;;;;;13.32;6.53;;;;;;;;;;5029657;28;20068;-70
2023/04/10 08:36:19;;;;;;;12.73;5.85;;;;;;;;;;5033201;28;20059;-68
2023/04/10 08:38:47;;;;;;;10.80;5.43;;;;;;;;;;5056708;28;20164;-69
2023/04/10 08:41:17;;;;;;;12.15;5.35;;;;;;;;;;5039072;28;20064;-69
2023/04/10 08:43:44;;;;;;;12.90;5.88;;;;;;;;;;5028130;28;20056;-70
2023/04/10 08:46:11;;;;;;;11.27;5.82;;;;;;;;;;5035699;28;20056;-71
2023/04/10 08:48:40;;;;;;;10.25;4.78;;;;;;;;;;5035485;28;20060;-70
2023/04/10 08:51:08;;;;;;;12.70;6.25;;;;;;;;;;5037566;28;20060;-71
2023/04/10 08:53:38;;;;;;;11.95;5.80;;;;;;;;;;5030581;28;20052;-70
2023/04/10 08:56:07;;;;;;;12.85;5.78;;;;;;;;;;5018918;28;20049;-69
2023/04/10 08:58:34;;;;;;;11.07;5.60;;;;;;;;;;5030331;28;20052;-70
2023/04/10 09:01:01;;;;;;;12.45;5.78;;;;;;;;;;5078361;28;20067;-71
2023/04/10 09:03:29;;;;;;;12.52;6.20;;;;;;;;;;5029635;28;20230;-69
2023/04/10 09:06:02;;;;;;;11.45;5.63;;;;;;;;;;5032171;28;20052;-71
2023/04/10 09:08:32;;;;;;;11.75;5.57;;;;;;;;;;5039075;28;20060;-70
2023/04/10 09:11:02;;;;;;;12.23;6.13;;;;;;;;;;5037306;28;20064;-71
2023/04/10 09:13:37;;;;;;;;;;;;;;;;;;5017274;28;20147;-70
2023/04/10 09:16:06;;;;;;;11.52;5.53;;;;;;;;;;5015049;28;19932;-69
2023/04/10 09:18:51;;;;;;;12.38;5.97;;;;;;;;;;5032818;28;20057;-70
2023/04/10 09:21:19;;;;;;;12.70;6.07;;;;;;;;;;5023358;28;20056;-71
2023/04/10 09:23:48;;;;;;;14.63;5.87;;;;;;;;;;5034483;28;20055;-71
2023/04/10 09:26:25;;;;;;;11.57;5.53;;;;;;;;;;5041277;28;20083;-72
2023/04/10 09:28:59;;;;;;;16.02;6.20;;;;;;;;;;5039552;28;20068;-72
2023/04/10 09:31:31;;;;;;;14.98;5.50;;;;;;;;;;5026108;28;20068;-69
2023/04/10 09:34:08;;;;;;;11.98;5.28;;;;;;;;;;5021490;28;20082;-72
2023/04/10 09:36:34;;;;;;;11.38;5.18;;;;;;;;;;5035979;28;20085;-71
2023/04/10 09:39:01;;;;;;;10.40;5.35;;;;;;;;;;5038750;28;20140;-70
2023/04/10 09:41:28;;;;;;;10.77;5.18;;;;;;;;;;5030492;28;20056;-72
2023/04/10 09:44:05;;;;;;;11.80;5.15;;;;;;;;;;5037944;28;20056;-71
2023/04/10 09:46:35;;;;;;;11.10;5.00;;;;;;;;;;5039391;28;20048;-71
2023/04/10 09:49:04;;;;;;;12.63;5.82;;;;;;;;;;5032934;28;20080;-72
2023/04/10 09:51:35;;;;;;;10.07;5.03;;;;;;;;;;5025406;28;21001;-71
2023/04/10 09:54:02;;;;;;;11.90;5.28;;;;;;;;;;5061679;28;20144;-71
2023/04/10 09:56:34;;;;;;;12.10;5.45;;;;;;;;;;5032484;28;20048;-72
2023/04/10 09:59:03;;;;;;;10.75;5.22;;;;;;;;;;5043075;28;20060;-70
2023/04/10 10:01:33;;;;;;;12.32;5.65;;;;;;;;;;5015222;28;20065;-70
2023/04/10 10:04:05;;;;;;;12.80;5.80;;;;;;;;;;5035110;28;20049;-70
2023/04/10 10:06:33;;;;;;;9.85;5.00;;;;;;;;;;5029111;28;20226;-71
2023/04/10 10:09:02;;;;;;;12.10;5.15;;;;;;;;;;5027324;28;20140;-71
2023/04/10 10:11:30;;;;;;;11.15;5.15;;;;;;;;;;5015563;28;20080;-73
2023/04/10 10:13:59;;;;;;;13.27;5.32;;;;;;;;;;5060725;28;20055;-70
2023/04/10 10:16:31;;;;;;;11.23;5.50;;;;;;;;;;5002319;28;20048;-70
2023/04/10 10:19:03;;;;;;;11.57;5.35;;;;;;;;;;5035953;28;20055;-70
2023/04/10 10:21:35;;;;;;;12.00;5.82;;;;;;;;;;5027644;28;20052;-70
2023/04/10 10:24:07;;;;;;;10.73;5.53;;;;;;;;;;5025944;28;20152;-72
2023/04/10 10:26:37;;;;;;;11.00;4.93;;;;;;;;;;5019261;28;20056;-70
2023/04/10 10:29:09;;;;;;;10.88;5.13;;;;;;;;;;5016868;28;20059;-71
2023/04/10 10:31:36;;;;;;;14.23;5.45;;;;;;;;;;5049130;28;21115;-70
2023/04/10 10:34:07;;;;;;;9.90;4.90;;;;;;;;;;5036504;28;20052;-69
2023/04/10 10:36:39;;;;;;;10.77;5.53;;;;;;;;;;5028670;28;20124;-69
2023/04/10 10:39:18;;;;;;;12.32;5.13;;;;;;;;;;5041637;28;20063;-71
2023/04/10 10:41:53;;;;;;;13.23;5.32;;;;;;;;;;5031994;28;20056;-71
2023/04/10 10:44:23;;;;;;;9.98;4.75;;;;;;;;;;5037421;28;20060;-69
2023/04/10 10:46:51;;;;;;;10.35;5.22;;;;;;;;;;5032242;28;20104;-70
2023/04/10 10:49:18;;;;;;;12.70;5.35;;;;;;;;;;5027648;28;20056;-71
2023/04/10 10:51:48;;;;;;;10.25;4.97;;;;;;;;;;5034219;28;20060;-69
2023/04/10 10:54:31;;;;;;;11.80;5.25;;;;;;;;;;5034792;28;20233;-71
2023/04/10 10:56:58;;;;;;;10.27;5.28;;;;;;;;;;5033174;28;20464;-71
2023/04/10 10:59:43;;;;;;;10.65;5.03;;;;;;;;;;5020024;28;20139;-70
2023/04/10 11:02:14;;;;;;;11.90;5.32;;;;;;;;;;5033145;28;20134;-72
2023/04/10 11:04:42;;;;;;;9.90;5.15;;;;;;;;;;5032456;28;20064;-71
2023/04/10 11:07:16;;;;;;;11.23;5.47;;;;;;;;;;5028638;28;20041;-70
2023/04/10 11:10:02;;;;;;;9.82;5.20;;;;;;;;;;5040605;28;20045;-70
2023/04/10 11:12:29;;;;;;;11.70;4.97;;;;;;;;;;5028522;28;20076;-71
2023/04/10 11:14:57;;;;;;;11.05;5.22;;;;;;;;;;5025414;28;20063;-70
2023/04/10 11:17:45;;;;;;;10.35;5.55;;;;;;;;;;5030842;28;20159;-72
2023/04/10 11:20:12;;;;;;;9.85;4.68;;;;;;;;;;5026710;28;20056;-70
2023/04/10 11:22:58;;;;;;;11.77;4.82;;;;;;;;;;5016634;28;20053;-71
2023/04/10 11:25:45;;;;;;;10.95;5.28;;;;;;;;;;5004245;28;20076;-68
2023/04/10 11:28:36;;;;;;;13.27;5.53;;;;;;;;;;5019611;28;20060;-69
2023/04/10 11:31:18;;;;;;;12.95;5.50;;;;;;;;;;5041159;28;20060;-71
2023/04/10 11:33:47;;;;;;;12.73;5.25;;;;;;;;;;5032570;28;20048;-71
2023/04/10 11:36:17;;;;;;;9.27;4.32;;;;;;;;;;5025217;28;20058;-70
2023/04/10 11:38:56;;;;;;;9.77;4.82;;;;;;;;;;5036232;28;20075;-71
2023/04/10 11:41:30;;;;;;;10.73;5.30;;;;;;;;;;5038693;28;20064;-71
2023/04/10 11:44:00;;;;;;;10.75;4.78;;;;;;;;;;5035787;28;20059;-70
2023/04/10 11:46:27;;;;;;;10.60;4.90;;;;;;;;;;5019493;28;20080;-74
2023/04/10 11:48:59;;;;;;;11.27;5.07;;;;;;;;;;5049991;28;20060;-72
2023/04/10 11:51:29;;;;;;;9.30;5.10;;;;;;;;;;5036825;28;20052;-72
2023/04/10 11:54:10;;;;;;;10.63;5.03;;;;;;;;;;5042336;28;20136;-70
2023/04/10 11:56:42;;;;;;;11.73;4.78;;;;;;;;;;5037904;28;20138;-70
2023/04/10 11:59:18;;;;;;;8.73;4.60;;;;;;;;;;5014749;28;20057;-72
2023/04/10 12:01:46;;;;;;;11.88;5.13;;;;;;;;;;5016457;28;20065;-70
2023/04/10 12:04:16;;;;;;;10.20;4.75;;;;;;;;;;5023902;28;20058;-72
2023/04/10 12:06:48;;;;;;;9.88;4.82;;;;;;;;;;5024335;28;20055;-71
2023/04/10 12:09:18;;;;;;;8.68;4.60;;;;;;;;;;5032327;28;20057;-72
2023/04/10 12:11:53;;;;;;;8.90;4.57;;;;;;;;;;5037333;28;20127;-70
2023/04/10 12:14:33;;;;;;;10.25;4.78;;;;;;;;;;5014711;28;20052;-71
2023/04/10 12:17:10;;;;;;;9.05;4.45;;;;;;;;;;5018938;28;20088;-73
2023/04/10 12:20:00;;;;;;;7.85;4.25;;;;;;;;;;5041928;28;20095;-71
2023/04/10 12:22:28;;;;;;;7.97;4.45;;;;;;;;;;5010299;28;20081;-70
2023/04/10 12:25:12;;;;;;;9.30;4.60;;;;;;;;;;5020782;28;20055;-72
2023/04/10 12:27:54;;;;;;;9.48;4.40;;;;;;;;;;5040670;28;20175;-70
2023/04/10 12:30:22;;;;;;;8.07;4.15;;;;;;;;;;5016109;28;20067;-70
2023/04/10 12:32:56;;;;;;;7.95;4.00;;;;;;;;;;5057925;28;20052;-71
2023/04/10 12:35:45;;;;;;;9.57;3.78;;;;;;;;;;4970949;28;20057;-71
2023/04/10 12:38:14;;;;;;;10.00;4.13;;;;;;;;;;5055686;28;20110;-73
2023/04/10 12:41:00;;;;;;;8.13;3.75;;;;;;;;;;5012423;28;20123;-72
2023/04/10 12:43:33;;;;;;;8.98;4.13;;;;;;;;;;5021776;28;20053;-70
2023/04/10 12:46:06;;;;;;;8.60;3.88;;;;;;;;;;4950267;28;20054;-73
2023/04/10 12:48:38;;;;;;;8.95;3.75;;;;;;;;;;5015845;28;20068;-71
2023/04/10 12:51:14;;;;;;;8.25;3.97;;;;;;;;;;5040893;28;20052;-70
2023/04/10 12:53:44;;;;;;;8.90;3.67;;;;;;;;;;5026746;28;20057;-71
2023/04/10 12:56:26;;;;;;;6.13;3.20;;;;;;;;;;4978077;28;20108;-70
2023/04/10 12:59:11;;;;;;;9.38;3.92;;;;;;;;;;5046989;28;20115;-71
2023/04/10 13:01:43;;;;;;;8.55;3.50;;;;;;;;;;5028427;28;20147;-71
2023/04/10 13:04:11;;;;;;;;;;;;;;;;;;5014442;28;20064;-72
2023/04/10 13:06:52;;;;;;;5.75;2.83;;;;;;;;;;5026138;28;20044;-71
2023/04/10 13:09:28;;;;;;;8.07;3.70;;;;;;;;;;5029645;28;20065;-71
2023/04/10 13:11:59;;;;;;;8.02;3.53;;;;;;;;;;5040140;28;20063;-73
2023/04/10 13:14:30;;;;;;;8.05;3.55;;;;;;;;;;5009462;28;20045;-72
2023/04/10 13:17:11;;;;;;;7.43;3.38;;;;;;;;;;5019948;28;20056;-72
2023/04/10 13:19:40;;;;;;;7.22;3.45;;;;;;;;;;5070654;28;20131;-70
2023/04/10 13:22:09;;;;;;;5.97;3.15;;;;;;;;;;5076638;28;20128;-71
2023/04/10 13:24:53;;;;;;;6.32;3.08;;;;;;;;;;5035248;28;20147;-72
2023/04/10 13:27:25;;;;;;;6.50;3.45;;;;;;;;;;5036961;28;20056;-74
2023/04/10 13:29:59;;;;;;;6.35;3.00;;;;;;;;;;5066078;28;20089;-72
2023/04/10 13:32:31;;;;;;;6.85;3.15;;;;;;;;;;5042897;28;20056;-69
2023/04/10 13:34:58;;;;;;;6.65;3.22;;;;;;;;;;5026307;28;20072;-70
2023/04/10 13:37:38;;;;;;;;;;;;;;;;;;;;;
2023/04/10 13:40:24;;;;;;;5.30;2.80;;;;;;;;;;5031806;28;20052;-71
2023/04/10 13:42:57;;;;;;;5.65;2.78;;;;;;;;;;5033233;28;20157;-71
2023/04/10 13:45:27;;;;;;;7.28;2.92;;;;;;;;;;4997305;28;20068;-71
2023/04/10 13:47:59;;;;;;;6.55;3.10;;;;;;;;;;4997524;28;20112;-73
2023/04/10 13:50:30;;;;;;;7.32;2.75;;;;;;;;;;5033985;28;20135;-72
2023/04/10 13:52:56;;;;;;;6.00;2.67;;;;;;;;;;5033700;28;20060;-72
2023/04/10 13:55:23;;;;;;;6.00;2.92;;;;;;;;;;5022798;28;20080;-71
2023/04/10 13:57:54;;;;;;;5.65;2.70;;;;;;;;;;4999825;28;20054;-73
2023/04/10 14:00:24;;;;;;;6.90;2.97;;;;;;;;;;5015009;28;20049;-72
2023/04/10 14:02:50;;;;;;;5.45;2.70;;;;;;;;;;5027190;28;20080;-69
2023/04/10 14:05:20;;;;;;;4.97;2.55;;;;;;;;;;5006572;28;20084;-70
2023/04/10 14:07:47;;;;;;;5.30;2.67;;;;;;;;;;5015386;28;20052;-70
2023/04/10 14:10:14;;;;;;;6.82;2.67;;;;;;;;;;5044215;28;20272;-71
2023/04/10 14:12:40;;;;;;;8.80;2.90;;;;;;;;;;5028210;28;20061;-70
2023/04/10 14:15:09;;;;;;;4.97;2.75;;;;;;;;;;5033320;28;20052;-70
2023/04/10 14:17:38;;;;;;;5.28;2.58;;;;;;;;;;5034794;28;20062;-70
2023/04/10 14:20:10;;;;;;;6.47;2.78;;;;;;;;;;5033090;28;20056;-69
2023/04/10 14:22:38;;;;;;;7.22;2.70;;;;;;;;;;5036819;28;20056;-71
2023/04/10 14:25:10;;;;;;;6.78;2.72;;;;;;;;;;5036206;28;20059;-70
2023/04/10 14:27:37;;;;;;;5.38;2.88;;;;;;;;;;5034031;28;20064;-72
2023/04/10 14:30:06;;;;;;;5.85;2.90;;;;;;;;;;5020125;28;20052;-72
2023/04/10 14:32:38;;;;;;;5.22;2.70;;;;;;;;;;5036937;28;20106;-70
2023/04/10 14:35:15;;;;;;;6.53;3.03;;;;;;;;;;5031708;28;20288;-70
2023/04/10 14:37:46;;;;;;;7.28;2.97;;;;;;;;;;5004432;28;20064;-71
2023/04/10 14:40:15;;;;;;;5.07;2.53;;;;;;;;;;5015468;28;20054;-69
2023/04/10 14:42:41;;;;;;;8.45;2.83;;;;;;;;;;5031834;28;20057;-72
2023/04/10 14:45:09;;;;;;;9.75;2.80;;;;;;;;;;5025570;28;20060;-72
2023/04/10 14:47:39;;;;;;;6.07;2.97;;;;;;;;;;5027171;28;20135;-70
2023/04/10 14:50:09;;;;;;;4.85;2.47;;;;;;;;;;5036271;28;20067;-72